createdAt,value
2018-07-02T00:00:38.010Z,23.20
2018-07-02T00:03:06.331Z,20.63
2018-07-02T00:05:39.959Z,22.97
2018-07-02T00:08:08.281Z,28.90
2018-07-02T00:10:36.644Z,22.10
2018-07-02T00:13:04.944Z,22.07
2018-07-02T00:15:33.195Z,22.40
2018-07-02T00:18:01.524Z,22.40
2018-07-02T00:20:29.772Z,23.17
2018-07-02T00:22:58.049Z,22.40
2018-07-02T00:25:26.376Z,25.00
2018-07-02T00:27:54.710Z,24.77
2018-07-02T00:30:23.019Z,24.37
2018-07-02T00:32:51.384Z,24.67
2018-07-02T00:35:19.640Z,25.50
2018-07-02T00:37:47.899Z,24.50
2018-07-02T00:40:16.326Z,26.90
2018-07-02T00:42:44.649Z,28.17
2018-07-02T00:45:12.942Z,28.07
2018-07-02T00:47:41.188Z,30.57
2018-07-02T00:50:09.507Z,30.37
2018-07-02T00:52:37.791Z,31.17
2018-07-02T00:55:06.136Z,31.43
2018-07-02T00:57:34.387Z,30.63
2018-07-02T01:00:08.240Z,33.30
2018-07-02T01:02:36.499Z,32.97
2018-07-02T01:05:04.776Z,31.97
2018-07-02T01:07:33.025Z,31.30
2018-07-02T01:10:01.293Z,32.63
2018-07-02T01:12:29.553Z,29.97
2018-07-02T01:14:57.876Z,27.30
2018-07-02T01:17:26.211Z,31.73
2018-07-02T01:19:54.480Z,26.30
2018-07-02T01:22:22.772Z,25.40
2018-07-02T01:24:51.132Z,22.77
2018-07-02T01:27:19.454Z,22.37
2018-07-02T01:29:47.743Z,24.10
2018-07-02T01:32:16.101Z,24.73
2018-07-02T01:34:44.340Z,20.10
2018-07-02T01:37:12.651Z,21.80
2018-07-02T01:39:40.990Z,19.50
2018-07-02T01:42:09.343Z,16.60
2018-07-02T01:44:37.650Z,16.83
2018-07-02T01:47:06.013Z,15.17
2018-07-02T01:49:34.279Z,16.40
2018-07-02T01:52:02.627Z,14.43
2018-07-02T01:54:30.933Z,17.93
2018-07-02T01:56:59.185Z,14.13
2018-07-02T01:59:27.455Z,14.30
2018-07-02T02:01:55.771Z,14.20
2018-07-02T02:04:24.043Z,14.00
2018-07-02T02:06:52.415Z,15.83
2018-07-02T02:09:20.744Z,15.37
2018-07-02T02:11:49.034Z,17.10
2018-07-02T02:14:17.375Z,16.40
2018-07-02T02:16:45.645Z,17.33
2018-07-02T02:19:14.056Z,17.57
2018-07-02T02:21:42.344Z,17.40
2018-07-02T02:24:10.683Z,17.80
2018-07-02T02:26:39.011Z,18.47
2018-07-02T02:29:07.343Z,15.67
2018-07-02T02:31:35.589Z,16.90
2018-07-02T02:34:03.928Z,17.23
2018-07-02T02:36:32.229Z,18.60
2018-07-02T02:39:00.564Z,17.50
2018-07-02T02:41:28.868Z,15.87
2018-07-02T02:43:57.191Z,16.50
2018-07-02T02:46:25.489Z,16.23
2018-07-02T02:48:53.771Z,16.07
2018-07-02T02:51:22.106Z,15.87
2018-07-02T02:53:50.439Z,16.80
2018-07-02T02:56:18.740Z,20.23
2018-07-02T02:58:46.996Z,18.20
2018-07-02T03:01:15.344Z,19.03
2018-07-02T03:03:44.102Z,19.00
2018-07-02T03:06:12.436Z,19.70
2018-07-02T03:08:40.755Z,19.63
2018-07-02T03:11:09.012Z,19.17
2018-07-02T03:13:37.287Z,19.47
2018-07-02T03:16:05.736Z,18.20
2018-07-02T03:18:34.035Z,18.37
2018-07-02T03:21:02.337Z,19.20
2018-07-02T03:23:30.646Z,18.30
2018-07-02T03:25:58.922Z,17.73
2018-07-02T03:28:27.249Z,18.60
2018-07-02T03:30:55.545Z,19.53
2018-07-02T03:33:23.835Z,22.93
2018-07-02T03:35:52.139Z,21.67
2018-07-02T03:38:20.459Z,19.90
2018-07-02T03:40:48.746Z,18.33
2018-07-02T03:43:17.824Z,18.77
2018-07-02T03:45:46.353Z,18.20
2018-07-02T03:48:14.668Z,19.90
2018-07-02T03:50:42.972Z,18.97
2018-07-02T03:53:11.445Z,18.53
2018-07-02T03:55:39.907Z,19.30
2018-07-02T03:58:08.227Z,19.67
2018-07-02T04:00:36.537Z,18.43
2018-07-02T04:03:04.840Z,19.70
2018-07-02T04:05:33.242Z,21.60
2018-07-02T04:08:01.532Z,18.70
2018-07-02T04:10:29.884Z,17.30
2018-07-02T04:12:58.257Z,18.43
2018-07-02T04:15:26.592Z,17.80
2018-07-02T04:17:54.888Z,17.67
2018-07-02T04:20:23.168Z,18.90
2018-07-02T04:22:51.596Z,18.03
2018-07-02T04:25:19.873Z,17.20
2018-07-02T04:27:48.163Z,16.90
2018-07-02T04:30:16.501Z,17.13
2018-07-02T04:32:44.744Z,16.40
2018-07-02T04:35:13.832Z,18.70
2018-07-02T04:37:42.147Z,15.00
2018-07-02T04:40:10.462Z,15.37
2018-07-02T04:42:38.774Z,17.40
2018-07-02T04:45:07.139Z,16.57
2018-07-02T04:47:35.384Z,17.17
2018-07-02T04:50:03.727Z,20.20
2018-07-02T04:52:32.005Z,22.87
2018-07-02T04:55:00.406Z,29.50
2018-07-02T04:57:28.692Z,14.17
2018-07-02T04:59:57.023Z,11.30
2018-07-02T05:02:25.272Z,14.50
2018-07-02T05:04:53.556Z,17.50
2018-07-02T05:07:21.858Z,14.80
2018-07-02T05:09:50.170Z,10.93
2018-07-02T05:12:18.380Z,10.00
2018-07-02T05:14:46.636Z,8.13
2018-07-02T05:17:14.876Z,8.30
2018-07-02T05:19:43.203Z,8.00
2018-07-02T05:22:11.425Z,7.83
2018-07-02T05:24:39.762Z,7.90
2018-07-02T05:27:07.967Z,8.70
2018-07-02T05:29:36.301Z,8.87
2018-07-02T05:32:04.571Z,8.80
2018-07-02T05:34:32.914Z,8.50
2018-07-02T05:37:01.202Z,9.77
2018-07-02T05:39:29.457Z,9.70
2018-07-02T05:41:57.745Z,10.20
2018-07-02T05:44:26.026Z,9.40
2018-07-02T05:46:54.272Z,9.50
2018-07-02T05:49:22.627Z,9.60
2018-07-02T05:51:50.917Z,10.07
2018-07-02T05:54:19.237Z,10.50
2018-07-02T05:56:47.547Z,11.87
2018-07-02T05:59:15.820Z,10.13
2018-07-02T06:01:44.114Z,10.97
2018-07-02T06:04:12.453Z,10.90
2018-07-02T06:06:40.852Z,10.80
2018-07-02T06:09:10.453Z,10.43
2018-07-02T06:11:39.560Z,10.33
2018-07-02T06:14:08.105Z,10.57
2018-07-02T06:16:36.425Z,9.40
2018-07-02T06:19:04.660Z,13.50
2018-07-02T06:21:32.928Z,12.13
2018-07-02T06:24:01.216Z,12.23
2018-07-02T06:26:29.489Z,14.93
2018-07-02T06:28:57.752Z,16.23
2018-07-02T06:31:26.004Z,16.90
2018-07-02T06:33:54.304Z,17.03
2018-07-02T06:36:22.608Z,25.07
2018-07-02T06:38:51.114Z,27.40
2018-07-02T06:41:19.519Z,35.83
2018-07-02T06:43:47.761Z,40.50
2018-07-02T06:46:16.116Z,33.70
2018-07-02T06:48:44.483Z,38.77
2018-07-02T06:51:12.716Z,44.97
2018-07-02T06:53:41.005Z,55.20
2018-07-02T06:56:09.321Z,57.00
2018-07-02T06:58:37.614Z,61.63
2018-07-02T07:01:05.798Z,65.07
2018-07-02T07:03:34.063Z,72.73
2018-07-02T07:06:02.328Z,66.87
2018-07-02T07:08:30.584Z,61.30
2018-07-02T07:10:58.857Z,73.40
2018-07-02T07:13:27.090Z,60.63
2018-07-02T07:15:55.362Z,52.23
2018-07-02T07:18:23.681Z,59.17
2018-07-02T07:20:51.994Z,44.93
2018-07-02T07:23:20.268Z,45.33
2018-07-02T07:25:48.597Z,58.93
2018-07-02T07:28:16.827Z,55.13
2018-07-02T07:30:45.161Z,63.10
2018-07-02T07:33:13.408Z,43.73
2018-07-02T07:35:41.696Z,56.80
2018-07-02T07:38:10.015Z,76.47
2018-07-02T07:40:38.310Z,49.93
2018-07-02T07:43:06.670Z,73.37
2018-07-02T07:45:35.019Z,61.60
2018-07-02T07:48:03.277Z,48.17
2018-07-02T07:50:31.532Z,45.27
2018-07-02T07:52:59.758Z,37.67
2018-07-02T07:55:28.036Z,51.77
2018-07-02T07:57:56.496Z,33.77
2018-07-02T08:00:24.741Z,38.63
2018-07-02T08:02:52.985Z,41.97
2018-07-02T08:05:21.237Z,85.67
2018-07-02T08:07:49.493Z,50.83
2018-07-02T08:10:17.817Z,69.20
2018-07-02T08:12:46.074Z,74.83
2018-07-02T08:15:14.378Z,80.40
2018-07-02T08:17:42.856Z,62.67
2018-07-02T08:20:11.094Z,68.70
2018-07-02T08:22:39.332Z,66.60
2018-07-02T08:25:08.311Z,75.77
2018-07-02T08:27:36.573Z,76.53
2018-07-02T08:30:05.758Z,58.07
2018-07-02T08:32:33.996Z,86.97
2018-07-02T08:35:02.262Z,71.00
2018-07-02T08:37:30.545Z,75.67
2018-07-02T08:39:58.811Z,71.50
2018-07-02T08:42:27.057Z,70.20
2018-07-02T08:44:55.349Z,77.13
2018-07-02T08:47:23.610Z,71.03
2018-07-02T08:49:51.904Z,89.40
2018-07-02T08:52:20.194Z,83.97
2018-07-02T08:54:48.535Z,90.97
2018-07-02T08:57:16.786Z,83.67
2018-07-02T08:59:45.156Z,64.97
